Time;durP1;ratioP1;P1;durP2;ratioP2;P2;SDS_P1;SDS_P2;PMS_P1;PMS_P2;Temp;Humidity;BMP_temperature;BMP_pressure;BME280_temperature;BME280_humidity;BME280_pressure;Samples;Min_cycle;Max_cycle;Signal;HPM_P1;HPM_P2
2021/09/20 07:11:22;;;;;;;3.45;2.90;;;18.70;51.80;;;;;;4629169;31;20197;-81
2021/09/20 07:13:50;;;;;;;4.07;2.95;;;18.80;51.60;;;;;;4628723;30;20228;-81
2021/09/20 07:16:19;;;;;;;4.00;2.97;;;18.70;51.40;;;;;;4653009;30;20216;-82
2021/09/20 07:18:54;;;;;;;3.40;2.97;;;18.70;51.50;;;;;;4695160;30;20215;-81
2021/09/20 07:21:23;;;;;;;3.35;2.90;;;18.70;51.30;;;;;;4683251;30;20191;-83
2021/09/20 07:23:51;;;;;;;4.95;3.30;;;18.60;51.60;;;;;;4684078;30;20249;-82
2021/09/20 07:26:19;;;;;;;3.90;2.90;;;18.60;50.90;;;;;;4669215;30;20615;-81
2021/09/20 07:28:45;;;;;;;4.40;3.20;;;18.70;51.20;;;;;;4664736;30;20272;-81
2021/09/20 07:31:11;;;;;;;4.82;2.90;;;18.60;51.40;;;;;;4680509;30;20200;-81
2021/09/20 07:33:37;;;;;;;3.45;2.92;;;18.60;51.40;;;;;;4697001;30;20330;-81
2021/09/20 07:36:02;;;;;;;5.03;3.22;;;18.60;51.70;;;;;;4734570;30;20261;-82
2021/09/20 07:38:28;;;;;;;4.20;3.42;;;18.70;51.70;;;;;;4751366;30;20232;-82
2021/09/20 07:40:54;;;;;;;8.02;3.60;;;18.60;51.90;;;;;;4785456;30;20318;-80
2021/09/20 07:43:19;;;;;;;3.65;3.03;;;18.60;51.90;;;;;;4774711;30;20196;-81
2021/09/20 07:45:45;;;;;;;4.80;3.00;;;18.70;51.90;;;;;;4759802;30;20257;-81
2021/09/20 07:48:14;;;;;;;4.22;3.40;;;18.70;51.50;;;;;;4773277;29;20197;-81
2021/09/20 07:50:39;;;;;;;5.97;3.20;;;18.70;51.60;;;;;;4812721;29;20255;-81
2021/09/20 07:53:08;;;;;;;4.70;3.35;;;18.70;51.60;;;;;;4793112;29;20270;-81
2021/09/20 07:55:35;;;;;;;4.65;3.40;;;18.60;51.60;;;;;;4777366;29;20599;-80
2021/09/20 07:58:07;;;;;;;3.95;3.17;;;18.70;51.60;;;;;;4778709;29;20182;-81
2021/09/20 08:00:36;;;;;;;4.25;3.25;;;18.70;51.30;;;;;;4765458;29;20175;-80
2021/09/20 08:03:06;;;;;;;3.78;3.30;;;18.70;51.60;;;;;;4777877;29;20187;-82
2021/09/20 08:06:09;;;;;;;;;;;;;;;;;;;;;
2021/09/20 08:08:36;;;;;;;6.93;3.13;;;18.70;51.60;;;;;;4776258;29;20190;-81
2021/09/20 08:11:07;;;;;;;4.03;3.22;;;18.80;51.70;;;;;;4792097;29;20233;-81
2021/09/20 08:13:33;;;;;;;4.05;3.22;;;18.70;51.60;;;;;;4781685;30;20211;-82
2021/09/20 08:16:02;;;;;;;7.90;3.28;;;18.70;51.50;;;;;;4782023;29;20686;-82
2021/09/20 08:18:30;;;;;;;8.35;3.40;;;18.70;51.30;;;;;;4780552;30;20192;-81
2021/09/20 08:20:58;;;;;;;5.45;3.30;;;18.70;51.70;;;;;;4795632;29;20193;-81
2021/09/20 08:23:35;;;;;;;4.32;3.15;;;18.80;51.80;;;;;;4791488;29;20340;-81
2021/09/20 08:26:06;;;;;;;5.55;3.03;;;18.70;51.00;;;;;;4791876;29;20273;-81
2021/09/20 08:29:16;;;;;;;8.77;3.10;;;18.80;52.10;;;;;;4792740;29;20265;-83
2021/09/20 08:31:47;;;;;;;7.32;3.30;;;18.70;52.30;;;;;;4805050;29;20190;-82
2021/09/20 08:34:22;;;;;;;6.65;3.40;;;18.80;52.10;;;;;;4815311;29;20189;-81
2021/09/20 08:36:51;;;;;;;4.18;3.20;;;18.80;52.20;;;;;;4792499;29;20188;-81
2021/09/20 08:39:17;;;;;;;8.52;3.20;;;18.80;51.90;;;;;;4793901;29;20246;-81
2021/09/20 08:41:44;;;;;;;7.50;3.50;;;18.80;51.80;;;;;;4823875;29;20285;-81
2021/09/20 08:44:13;;;;;;;8.10;3.83;;;18.80;52.00;;;;;;4805296;29;20434;-82
2021/09/20 08:46:44;;;;;;;7.60;3.28;;;18.80;51.80;;;;;;4776883;29;20262;-83
2021/09/20 08:49:24;;;;;;;7.22;3.53;;;18.80;51.60;;;;;;4761600;29;20598;-84
2021/09/20 08:51:57;;;;;;;8.60;3.50;;;18.90;52.20;;;;;;4773233;30;20186;-81
2021/09/20 08:54:39;;;;;;;7.15;3.25;;;18.80;52.30;;;;;;4773668;30;20275;-83
2021/09/20 08:57:05;;;;;;;8.02;3.40;;;18.80;52.30;;;;;;4773991;30;20191;-81
2021/09/20 08:59:36;;;;;;;14.52;3.33;;;18.80;52.20;;;;;;4773921;30;20179;-81
2021/09/20 09:02:06;;;;;;;9.02;3.83;;;18.90;53.10;;;;;;4782255;29;20193;-80
2021/09/20 09:04:34;;;;;;;10.98;3.38;;;18.80;53.00;;;;;;4811694;29;20298;-82
2021/09/20 09:07:04;;;;;;;9.98;3.50;;;18.90;53.20;;;;;;4781367;29;20645;-80
2021/09/20 09:09:35;;;;;;;8.23;3.50;;;18.90;52.70;;;;;;4811815;29;20760;-81
2021/09/20 09:12:13;;;;;;;8.63;3.55;;;18.90;53.00;;;;;;4801424;29;20271;-81
2021/09/20 09:14:45;;;;;;;11.43;3.75;;;18.90;53.00;;;;;;4798670;29;20664;-81
2021/09/20 09:17:13;;;;;;;8.50;3.58;;;18.90;53.20;;;;;;4810553;29;20182;-80
2021/09/20 09:19:49;;;;;;;14.43;3.67;;;18.90;52.90;;;;;;4825201;29;20165;-80
2021/09/20 09:22:14;;;;;;;10.77;3.35;;;18.90;53.00;;;;;;4810177;29;20188;-81
2021/09/20 09:24:53;;;;;;;6.45;3.45;;;19.00;53.10;;;;;;4862577;29;20221;-81
2021/09/20 09:27:20;;;;;;;9.27;3.58;;;18.90;53.20;;;;;;4863629;29;20620;-80
2021/09/20 09:29:46;;;;;;;9.15;3.70;;;19.00;53.10;;;;;;4843591;29;20555;-83
2021/09/20 09:32:12;;;;;;;12.23;3.55;;;19.00;53.30;;;;;;4862532;29;20189;-80
2021/09/20 09:34:37;;;;;;;12.20;4.20;;;19.00;53.20;;;;;;4864073;29;20153;-79
2021/09/20 09:37:11;;;;;;;11.55;3.97;;;19.00;53.30;;;;;;4847044;29;20224;-80
2021/09/20 09:39:36;;;;;;;6.82;3.78;;;19.00;53.30;;;;;;4846691;29;20252;-80
2021/09/20 09:42:02;;;;;;;11.35;3.72;;;18.90;53.20;;;;;;4847395;29;20176;-80
2021/09/20 09:44:30;;;;;;;9.63;3.72;;;18.90;53.30;;;;;;4832514;29;20632;-80
2021/09/20 09:46:56;;;;;;;10.45;3.70;;;19.00;53.10;;;;;;4848043;29;20169;-80
2021/09/20 09:49:22;;;;;;;11.45;3.55;;;19.00;53.30;;;;;;4846977;29;20199;-80
2021/09/20 09:52:09;;;;;;;8.32;3.17;;;19.00;53.80;;;;;;4864443;29;20165;-81
2021/09/20 09:54:36;;;;;;;11.85;3.85;;;19.00;53.10;;;;;;4847697;29;20181;-80
2021/09/20 09:57:16;;;;;;;8.50;3.40;;;18.90;53.10;;;;;;4863478;29;20165;-81
2021/09/20 09:59:42;;;;;;;7.85;3.50;;;18.90;53.20;;;;;;4847881;29;20177;-80
2021/09/20 10:02:20;;;;;;;11.43;4.05;;;18.90;53.20;;;;;;4847740;29;20176;-81
2021/09/20 10:04:58;;;;;;;9.55;3.75;;;18.90;53.00;;;;;;4834367;29;20604;-81
2021/09/20 10:07:29;;;;;;;15.90;3.70;;;19.00;53.10;;;;;;4856553;29;20196;-81
2021/09/20 10:09:57;;;;;;;7.78;3.58;;;19.00;52.90;;;;;;4854152;29;20183;-81
2021/09/20 10:12:34;;;;;;;13.25;4.05;;;19.00;52.80;;;;;;4858081;29;20188;-81
2021/09/20 10:15:05;;;;;;;10.93;3.80;;;19.00;52.80;;;;;;4872629;29;20164;-82
2021/09/20 10:18:11;;;;;;;9.15;3.55;;;19.00;53.20;;;;;;4843733;29;20184;-82
2021/09/20 10:20:54;;;;;;;12.13;3.78;;;19.00;52.90;;;;;;4873986;29;20232;-82
2021/09/20 10:23:36;;;;;;;14.45;3.63;;;19.00;53.80;;;;;;4832040;29;20314;-81
2021/09/20 10:26:03;;;;;;;7.80;3.15;;;19.00;53.10;;;;;;4801280;29;20198;-82
2021/09/20 10:28:40;;;;;;;7.05;3.15;;;19.00;53.20;;;;;;4786097;29;20194;-82
2021/09/20 10:31:09;;;;;;;8.60;3.53;;;19.00;53.40;;;;;;4812569;29;20245;-81
2021/09/20 10:33:38;;;;;;;7.50;3.28;;;18.90;53.20;;;;;;4797292;29;20210;-81
2021/09/20 10:36:08;;;;;;;7.32;3.22;;;18.90;53.30;;;;;;4812340;29;20202;-81
2021/09/20 10:38:50;;;;;;;9.77;3.50;;;18.90;53.30;;;;;;4813617;29;20312;-81
2021/09/20 10:41:24;;;;;;;8.43;3.17;;;18.90;53.40;;;;;;4812311;29;20166;-81
2021/09/20 10:44:12;;;;;;;10.02;4.15;;;18.90;53.30;;;;;;4797119;29;20206;-81
2021/09/20 10:46:40;;;;;;;5.65;2.90;;;18.90;53.40;;;;;;4790072;30;20295;-80
2021/09/20 10:49:22;;;;;;;7.68;3.50;;;18.90;53.40;;;;;;4779128;30;20198;-81
2021/09/20 10:52:04;;;;;;;9.13;3.47;;;18.80;53.20;;;;;;4776352;30;20188;-80
2021/09/20 10:54:30;;;;;;;7.28;3.10;;;19.00;53.30;;;;;;4798304;29;20200;-79
2021/09/20 10:57:14;;;;;;;5.45;3.28;;;18.90;53.30;;;;;;4798211;29;20190;-80
2021/09/20 10:59:39;;;;;;;5.35;3.60;;;18.90;53.50;;;;;;4800819;29;20589;-79
2021/09/20 11:02:27;;;;;;;12.38;3.72;;;18.90;53.30;;;;;;4816783;29;20194;-79
2021/09/20 11:05:04;;;;;;;8.57;3.40;;;18.90;53.50;;;;;;4802656;29;20265;-79
2021/09/20 11:07:42;;;;;;;6.78;3.20;;;18.90;53.50;;;;;;4817403;29;20204;-79
2021/09/20 11:10:09;;;;;;;7.30;3.28;;;18.90;53.40;;;;;;4800136;29;20216;-79
2021/09/20 11:12:54;;;;;;;6.18;3.15;;;18.90;53.40;;;;;;4798919;29;20274;-79
2021/09/20 11:15:20;;;;;;;7.72;3.13;;;18.90;53.30;;;;;;4792690;29;20178;-79
2021/09/20 11:17:46;;;;;;;9.95;3.72;;;18.80;54.20;;;;;;4835561;29;20289;-80
2021/09/20 11:20:26;;;;;;;8.82;3.70;;;18.90;53.40;;;;;;4864382;29;20158;-79
2021/09/20 11:23:16;;;;;;;10.15;3.40;;;18.80;53.40;;;;;;4863112;29;20161;-79
2021/09/20 11:26:01;;;;;;;9.38;3.63;;;18.90;53.30;;;;;;4863616;29;20208;-79
2021/09/20 11:28:32;;;;;;;8.25;3.35;;;18.90;53.30;;;;;;4864565;29;20314;-80
2021/09/20 11:30:57;;;;;;;8.48;3.67;;;18.90;53.30;;;;;;4863303;29;20168;-79
2021/09/20 11:33:33;;;;;;;7.40;3.05;;;18.90;53.20;;;;;;4861925;29;20551;-79
2021/09/20 11:35:58;;;;;;;8.70;3.40;;;18.90;53.10;;;;;;4863051;29;20209;-79
2021/09/20 11:38:24;;;;;;;6.32;3.22;;;18.90;53.20;;;;;;4866447;29;20225;-81
2021/09/20 11:40:50;;;;;;;5.72;3.63;;;18.90;53.20;;;;;;4870096;29;20164;-80
2021/09/20 11:43:15;;;;;;;4.50;3.28;;;18.90;53.20;;;;;;4862584;29;20510;-80
2021/09/20 11:45:41;;;;;;;10.38;3.40;;;18.90;53.20;;;;;;4861719;29;20191;-81
2021/09/20 11:48:09;;;;;;;8.52;3.45;;;18.90;53.50;;;;;;4845723;29;20184;-78
2021/09/20 11:50:38;;;;;;;9.55;3.80;;;18.90;53.40;;;;;;4863168;29;20169;-79
2021/09/20 11:53:05;;;;;;;5.75;3.53;;;18.90;53.30;;;;;;4862474;29;20260;-79
2021/09/20 11:55:34;;;;;;;8.10;3.17;;;18.90;53.70;;;;;;4862498;29;20512;-80
2021/09/20 11:58:02;;;;;;;6.30;3.28;;;18.90;53.40;;;;;;4868940;29;20176;-79
2021/09/20 12:00:30;;;;;;;7.90;3.17;;;18.90;53.40;;;;;;4867271;29;20168;-80
2021/09/20 12:02:57;;;;;;;6.00;3.10;;;18.90;53.60;;;;;;4866970;29;20156;-79
2021/09/20 12:05:28;;;;;;;7.03;3.47;;;18.90;53.40;;;;;;4866835;29;20169;-80
2021/09/20 12:07:57;;;;;;;8.00;3.50;;;18.90;53.40;;;;;;4867577;29;20584;-80
2021/09/20 12:10:30;;;;;;;5.65;3.38;;;18.90;53.70;;;;;;4868260;29;20612;-80
2021/09/20 12:12:59;;;;;;;4.80;3.40;;;18.90;53.20;;;;;;4852352;29;20204;-80
2021/09/20 12:15:27;;;;;;;6.88;3.70;;;18.90;53.40;;;;;;4867928;29;20165;-80
2021/09/20 12:17:56;;;;;;;6.13;3.22;;;18.90;53.40;;;;;;4868364;29;20176;-80
2021/09/20 12:20:40;;;;;;;4.60;3.28;;;18.80;53.10;;;;;;4868895;29;20157;-79
2021/09/20 12:23:12;;;;;;;8.07;3.20;;;18.90;53.20;;;;;;4867719;29;20169;-80
2021/09/20 12:25:43;;;;;;;5.20;3.13;;;18.90;53.10;;;;;;4852572;29;20335;-79
2021/09/20 12:28:28;;;;;;;6.85;3.20;;;18.90;53.30;;;;;;4851625;29;20199;-80
2021/09/20 12:31:12;;;;;;;7.18;3.30;;;18.90;53.20;;;;;;4852405;29;20180;-79
2021/09/20 12:34:02;;;;;;;5.75;3.42;;;18.90;53.40;;;;;;4868824;29;20196;-78
2021/09/20 12:36:43;;;;;;;7.25;3.15;;;18.90;53.00;;;;;;4867275;29;20169;-79
2021/09/20 12:39:13;;;;;;;6.80;2.92;;;18.90;53.10;;;;;;4868407;29;20171;-82
2021/09/20 12:41:42;;;;;;;5.32;3.50;;;18.90;53.30;;;;;;4867652;29;20164;-83
2021/09/20 12:44:49;;;;;;;4.90;3.17;;;18.90;53.10;;;;;;4852066;29;20203;-80
2021/09/20 12:47:18;;;;;;;8.15;3.10;;;18.90;53.00;;;;;;4749942;30;20188;-80
2021/09/20 12:49:57;;;;;;;7.45;3.40;;;18.90;53.20;;;;;;4777002;30;20192;-80
2021/09/20 12:52:25;;;;;;;5.97;3.42;;;18.90;53.40;;;;;;4778669;30;20195;-80
2021/09/20 12:54:52;;;;;;;5.25;3.08;;;19.00;52.90;;;;;;4780251;30;20552;-80
2021/09/20 12:57:21;;;;;;;6.82;3.30;;;18.90;52.70;;;;;;4779341;30;20175;-81
2021/09/20 12:59:48;;;;;;;8.60;3.10;;;18.90;53.00;;;;;;4781535;30;20648;-82
2021/09/20 13:02:15;;;;;;;5.50;3.47;;;18.90;53.20;;;;;;4781259;30;20188;-80
2021/09/20 13:04:42;;;;;;;5.60;3.33;;;18.90;53.10;;;;;;4779951;30;20192;-80
2021/09/20 13:07:13;;;;;;;5.63;3.47;;;18.90;53.20;;;;;;4765600;30;20199;-81
2021/09/20 13:09:52;;;;;;;6.47;3.33;;;18.80;53.30;;;;;;4772501;30;20187;-81
2021/09/20 13:12:18;;;;;;;5.18;3.17;;;18.90;52.70;;;;;;4776622;30;20283;-80
2021/09/20 13:14:49;;;;;;;4.95;3.53;;;18.90;52.80;;;;;;4779720;30;20233;-80
2021/09/20 13:17:14;;;;;;;5.85;3.22;;;18.90;52.80;;;;;;4779853;30;20624;-80
2021/09/20 13:20:04;;;;;;;6.13;3.40;;;18.90;53.10;;;;;;4781273;30;20183;-80
2021/09/20 13:22:32;;;;;;;4.63;2.95;;;18.90;53.10;;;;;;4852758;29;20216;-80
2021/09/20 13:25:22;;;;;;;5.97;3.30;;;18.90;53.10;;;;;;4860375;29;20272;-80
2021/09/20 13:27:49;;;;;;;9.07;3.47;;;18.90;53.30;;;;;;4889419;29;20220;-81
2021/09/20 13:30:16;;;;;;;5.47;3.20;;;18.90;53.20;;;;;;4886995;29;20188;-80
2021/09/20 13:32:44;;;;;;;6.65;2.88;;;18.90;52.80;;;;;;4887124;29;20605;-81
2021/09/20 13:35:22;;;;;;;5.70;3.47;;;19.00;53.00;;;;;;4887478;29;20706;-81
2021/09/20 13:37:48;;;;;;;4.82;3.10;;;18.90;53.00;;;;;;4886965;29;20230;-78
2021/09/20 13:40:14;;;;;;;5.03;2.95;;;18.90;53.10;;;;;;4869796;29;20239;-81
2021/09/20 13:42:40;;;;;;;6.35;3.50;;;18.90;53.40;;;;;;4888152;29;20237;-80
2021/09/20 13:45:07;;;;;;;6.20;3.45;;;18.90;53.30;;;;;;4870821;29;20187;-81
2021/09/20 13:47:34;;;;;;;5.40;3.25;;;18.90;52.90;;;;;;4888465;29;20252;-81
2021/09/20 13:50:00;;;;;;;6.35;2.95;;;18.90;53.30;;;;;;4890256;29;20168;-81
2021/09/20 13:52:26;;;;;;;5.22;3.45;;;18.90;52.90;;;;;;4889806;29;20263;-80
2021/09/20 13:54:52;;;;;;;6.32;3.25;;;19.00;53.00;;;;;;4890435;29;20171;-79
2021/09/20 13:57:17;;;;;;;5.45;3.53;;;19.00;52.70;;;;;;4894695;29;20168;-80
2021/09/20 13:59:43;;;;;;;4.65;3.30;;;19.00;53.10;;;;;;4893190;29;20161;-80
2021/09/20 14:02:10;;;;;;;3.25;2.63;;;19.00;53.10;;;;;;4892743;29;20175;-80
2021/09/20 14:04:37;;;;;;;5.32;3.47;;;19.00;53.00;;;;;;4893180;29;20168;-81
2021/09/20 14:07:03;;;;;;;4.00;2.67;;;18.90;53.20;;;;;;4890923;29;20167;-81
2021/09/20 14:09:29;;;;;;;5.10;3.17;;;18.90;53.10;;;;;;4891835;29;20545;-80
2021/09/20 14:11:54;;;;;;;5.05;3.40;;;19.00;52.90;;;;;;4889962;29;20616;-81
2021/09/20 14:14:22;;;;;;;4.93;2.92;;;19.00;53.00;;;;;;4890652;29;20599;-81
2021/09/20 14:16:49;;;;;;;4.85;3.22;;;19.00;53.20;;;;;;4889242;29;20163;-80
2021/09/20 14:19:16;;;;;;;4.90;3.25;;;19.00;53.30;;;;;;4887057;29;20183;-80
2021/09/20 14:21:43;;;;;;;3.55;2.90;;;19.00;53.00;;;;;;4888112;29;20496;-81
2021/09/20 14:24:09;;;;;;;5.43;2.88;;;19.00;53.20;;;;;;4890075;29;20172;-81
2021/09/20 14:26:34;;;;;;;5.95;3.08;;;19.00;53.20;;;;;;4872886;29;20562;-80
2021/09/20 14:29:00;;;;;;;3.75;2.67;;;19.00;53.20;;;;;;4886560;29;20164;-80
2021/09/20 14:31:26;;;;;;;4.75;3.10;;;19.00;52.70;;;;;;4869536;29;20633;-81
2021/09/20 14:33:51;;;;;;;6.40;3.15;;;19.00;52.70;;;;;;4882638;29;20192;-82
2021/09/20 14:36:17;;;;;;;5.15;3.38;;;19.10;52.80;;;;;;4882949;29;20160;-82
2021/09/20 14:38:43;;;;;;;4.85;3.08;;;19.00;52.90;;;;;;4883255;29;20331;-82
2021/09/20 14:41:09;;;;;;;6.85;3.10;;;19.00;52.70;;;;;;4868561;29;20234;-82
2021/09/20 14:43:36;;;;;;;4.00;3.15;;;19.00;52.80;;;;;;4885064;29;20584;-81
2021/09/20 14:46:05;;;;;;;4.13;2.90;;;19.00;53.10;;;;;;4886356;29;20173;-82
2021/09/20 14:48:30;;;;;;;4.38;2.60;;;19.10;52.80;;;;;;4883682;29;20183;-82
2021/09/20 14:50:56;;;;;;;5.38;3.03;;;19.00;53.00;;;;;;4871610;29;20173;-82
2021/09/20 14:53:22;;;;;;;3.75;2.80;;;19.00;52.80;;;;;;4883531;29;20678;-84
2021/09/20 14:55:49;;;;;;;5.05;3.35;;;19.10;52.50;;;;;;4867369;29;20531;-83
2021/09/20 14:58:17;;;;;;;5.90;3.10;;;19.00;52.80;;;;;;4883913;29;20164;-85
2021/09/20 15:00:42;;;;;;;4.32;2.75;;;19.00;53.10;;;;;;4881943;29;20153;-81
2021/09/20 15:03:09;;;;;;;7.05;3.40;;;19.00;52.20;;;;;;4881641;29;20175;-83
2021/09/20 15:05:34;;;;;;;6.65;3.20;;;19.00;52.80;;;;;;4866840;29;20180;-82
2021/09/20 15:08:00;;;;;;;4.60;3.17;;;19.10;53.00;;;;;;4883219;29;20171;-82
2021/09/20 15:10:29;;;;;;;7.80;3.17;;;19.10;52.70;;;;;;4882553;29;20176;-81
2021/09/20 15:12:55;;;;;;;5.00;2.78;;;19.10;52.70;;;;;;4883067;29;20180;-82
2021/09/20 15:15:20;;;;;;;4.20;2.75;;;19.10;52.50;;;;;;4883620;29;20210;-83
2021/09/20 15:17:48;;;;;;;5.60;3.15;;;19.10;52.80;;;;;;4884347;29;20183;-81
2021/09/20 15:20:18;;;;;;;8.00;3.58;;;19.00;52.80;;;;;;4883567;29;20195;-83
2021/09/20 15:22:44;;;;;;;4.68;3.00;;;19.10;53.00;;;;;;4872652;29;20180;-80
2021/09/20 15:25:11;;;;;;;5.38;3.45;;;19.00;52.90;;;;;;4876415;29;20190;-81
2021/09/20 15:27:37;;;;;;;4.78;2.92;;;19.10;52.80;;;;;;4859991;29;20180;-81
2021/09/20 15:30:04;;;;;;;5.43;2.97;;;19.10;52.80;;;;;;4827998;29;20269;-81
2021/09/20 15:32:30;;;;;;;4.88;3.30;;;19.10;53.00;;;;;;4825915;29;20928;-80
2021/09/20 15:34:56;;;;;;;3.55;3.05;;;19.10;53.20;;;;;;4842258;29;20206;-80
2021/09/20 15:37:24;;;;;;;5.50;3.05;;;19.10;53.10;;;;;;4829963;29;20225;-80
2021/09/20 15:39:52;;;;;;;3.97;2.90;;;19.10;52.30;;;;;;4795539;29;20181;-81
2021/09/20 15:42:19;;;;;;;4.60;3.00;;;19.20;52.50;;;;;;4817607;29;20280;-80
2021/09/20 15:44:47;;;;;;;4.15;2.90;;;19.20;52.80;;;;;;4817939;29;20178;-82
2021/09/20 15:47:12;;;;;;;4.53;2.58;;;19.20;53.10;;;;;;4800575;29;20187;-81
2021/09/20 15:49:40;;;;;;;7.72;3.25;;;19.10;53.30;;;;;;4797582;29;20193;-81
2021/09/20 15:52:08;;;;;;;6.28;3.63;;;19.20;53.20;;;;;;4810913;29;20194;-82
2021/09/20 15:54:34;;;;;;;5.18;3.15;;;19.20;53.20;;;;;;4776805;30;20195;-82
2021/09/20 15:57:02;;;;;;;7.32;3.15;;;19.10;52.90;;;;;;4808002;29;20188;-81
2021/09/20 15:59:30;;;;;;;5.60;2.90;;;19.10;53.00;;;;;;4800484;29;20182;-81
2021/09/20 16:01:56;;;;;;;7.38;3.10;;;19.20;52.60;;;;;;4799877;29;20182;-81
2021/09/20 16:04:21;;;;;;;6.32;2.88;;;19.20;52.60;;;;;;4816149;29;20170;-80
2021/09/20 16:06:52;;;;;;;5.40;2.65;;;19.20;52.70;;;;;;4823266;29;20189;-80
2021/09/20 16:09:18;;;;;;;7.68;3.10;;;19.20;52.60;;;;;;4836381;29;20161;-79
2021/09/20 16:11:44;;;;;;;6.68;2.70;;;19.20;52.80;;;;;;4821016;29;20169;-79
2021/09/20 16:14:10;;;;;;;5.15;3.17;;;19.10;53.20;;;;;;4822240;29;20261;-79
2021/09/20 16:16:36;;;;;;;5.95;2.90;;;19.20;53.30;;;;;;4837448;29;20233;-80
2021/09/20 16:19:08;;;;;;;6.18;3.03;;;19.20;53.50;;;;;;4854286;29;20204;-80
2021/09/20 16:21:35;;;;;;;5.07;2.95;;;19.10;53.10;;;;;;4889967;29;20168;-80
2021/09/20 16:24:01;;;;;;;3.40;2.63;;;19.10;53.20;;;;;;4859948;29;20184;-80
2021/09/20 16:26:27;;;;;;;6.88;2.92;;;19.10;53.10;;;;;;4874789;29;20240;-80
2021/09/20 16:28:56;;;;;;;4.05;2.80;;;19.20;52.80;;;;;;4874350;29;20235;-79
2021/09/20 16:31:21;;;;;;;5.53;3.20;;;19.20;52.90;;;;;;4873647;29;20168;-79
2021/09/20 16:33:47;;;;;;;6.70;2.70;;;19.20;52.70;;;;;;4890185;29;20666;-79
2021/09/20 16:36:16;;;;;;;4.82;2.90;;;19.20;52.80;;;;;;4875149;29;20160;-80
2021/09/20 16:38:42;;;;;;;8.63;3.17;;;19.30;52.90;;;;;;4873446;29;20228;-81
2021/09/20 16:41:08;;;;;;;4.47;3.03;;;19.20;52.90;;;;;;4859690;29;20221;-80
2021/09/20 16:43:40;;;;;;;6.70;3.05;;;19.20;52.70;;;;;;4858825;29;20239;-80
2021/09/20 16:46:06;;;;;;;4.85;2.55;;;19.20;52.50;;;;;;4890507;29;20168;-80
2021/09/20 16:48:34;;;;;;;4.20;2.65;;;19.20;52.20;;;;;;4890414;29;20246;-80
2021/09/20 16:51:00;;;;;;;4.80;2.90;;;19.20;52.20;;;;;;4889879;29;20228;-80
2021/09/20 16:53:27;;;;;;;4.90;2.78;;;19.20;52.20;;;;;;4889266;29;20263;-80
2021/09/20 16:55:53;;;;;;;6.57;3.25;;;19.20;52.60;;;;;;4889655;29;20160;-79
2021/09/20 16:58:22;;;;;;;4.95;2.75;;;19.10;52.80;;;;;;4889307;29;20180;-79
2021/09/20 17:00:52;;;;;;;5.80;3.10;;;19.20;52.80;;;;;;4887970;29;20197;-82
2021/09/20 17:03:18;;;;;;;5.05;2.70;;;19.10;52.50;;;;;;4868567;29;20199;-79
2021/09/20 17:05:43;;;;;;;5.13;2.85;;;19.20;52.40;;;;;;4886093;29;20176;-79
2021/09/20 17:08:09;;;;;;;6.47;3.00;;;19.10;52.50;;;;;;4867020;29;20646;-80
2021/09/20 17:10:35;;;;;;;7.20;2.60;;;19.10;52.40;;;;;;4881518;29;20222;-79
2021/09/20 17:13:01;;;;;;;3.55;2.75;;;19.10;52.50;;;;;;4883730;29;20195;-80
2021/09/20 17:15:26;;;;;;;3.88;2.75;;;19.10;52.30;;;;;;4887038;29;20179;-80
2021/09/20 17:17:53;;;;;;;4.47;2.67;;;19.10;52.20;;;;;;4868702;29;20616;-79
2021/09/20 17:20:19;;;;;;;4.85;2.70;;;19.10;52.40;;;;;;4887080;29;20167;-80
2021/09/20 17:22:45;;;;;;;3.78;2.92;;;19.10;52.10;;;;;;4886286;29;20160;-80
2021/09/20 17:25:11;;;;;;;4.43;2.55;;;19.20;52.10;;;;;;4887302;29;20202;-80
2021/09/20 17:27:37;;;;;;;5.25;2.88;;;19.10;52.30;;;;;;4887545;29;20175;-79
2021/09/20 17:30:04;;;;;;;4.85;2.80;;;19.10;51.80;;;;;;4889822;29;20164;-80
2021/09/20 17:32:32;;;;;;;6.65;3.38;;;19.10;52.90;;;;;;4888540;29;20542;-80
2021/09/20 17:34:58;;;;;;;5.63;2.70;;;19.10;52.60;;;;;;4890013;29;20152;-79
2021/09/20 17:37:24;;;;;;;6.18;3.20;;;19.10;52.50;;;;;;4873423;29;20278;-80
2021/09/20 17:39:49;;;;;;;5.22;2.72;;;19.10;52.60;;;;;;4876487;29;20202;-79
2021/09/20 17:42:16;;;;;;;4.30;2.60;;;19.10;52.30;;;;;;4878063;29;20172;-80
2021/09/20 17:44:43;;;;;;;4.95;2.92;;;19.10;52.30;;;;;;4893629;29;20160;-80
2021/09/20 17:47:10;;;;;;;3.10;2.53;;;19.10;52.30;;;;;;4857448;29;20179;-80
2021/09/20 17:49:38;;;;;;;3.92;2.97;;;19.10;52.20;;;;;;4876097;29;20602;-80
2021/09/20 17:52:05;;;;;;;4.57;2.83;;;19.10;51.90;;;;;;4891931;29;20203;-80
2021/09/20 17:54:30;;;;;;;5.32;2.90;;;19.10;52.60;;;;;;4890232;29;20223;-80
2021/09/20 17:56:56;;;;;;;5.68;2.80;;;19.10;52.50;;;;;;4874509;29;20224;-80
2021/09/20 17:59:22;;;;;;;4.88;3.10;;;19.10;52.50;;;;;;4889401;29;20231;-80
2021/09/20 18:01:50;;;;;;;6.30;3.00;;;19.10;52.50;;;;;;4870453;29;20219;-79
2021/09/20 18:04:18;;;;;;;4.18;3.05;;;19.10;52.40;;;;;;4868461;29;20213;-80
2021/09/20 18:06:46;;;;;;;4.40;2.83;;;19.10;52.40;;;;;;4883151;29;20237;-80
2021/09/20 18:09:12;;;;;;;6.53;3.10;;;19.10;52.20;;;;;;4893977;29;20207;-79
2021/09/20 18:11:39;;;;;;;4.18;2.53;;;19.10;52.20;;;;;;4892208;29;20227;-79
2021/09/20 18:14:07;;;;;;;5.13;2.88;;;19.10;52.00;;;;;;4876291;29;20279;-80
2021/09/20 18:16:34;;;;;;;5.47;2.80;;;19.20;52.20;;;;;;4889715;29;20218;-79
2021/09/20 18:18:59;;;;;;;5.20;3.00;;;19.10;52.40;;;;;;4892229;29;20252;-79
2021/09/20 18:21:27;;;;;;;4.65;3.30;;;19.10;52.70;;;;;;4889831;29;20228;-80
2021/09/20 18:23:54;;;;;;;5.93;3.00;;;19.10;52.60;;;;;;4861034;29;20207;-80
2021/09/20 18:26:21;;;;;;;4.57;3.00;;;19.10;52.60;;;;;;4876407;29;20208;-79
2021/09/20 18:28:52;;;;;;;4.93;3.05;;;19.10;52.50;;;;;;4891020;29;20283;-80
2021/09/20 18:31:19;;;;;;;5.85;2.90;;;19.10;52.50;;;;;;4891214;29;20299;-80
2021/09/20 18:33:44;;;;;;;4.10;2.78;;;19.10;52.80;;;;;;4873983;29;20291;-80
2021/09/20 18:36:11;;;;;;;5.32;2.88;;;19.10;52.00;;;;;;4890851;29;20215;-80
2021/09/20 18:38:37;;;;;;;5.35;2.75;;;19.10;52.20;;;;;;4876451;29;20243;-80
2021/09/20 18:41:03;;;;;;;6.47;2.88;;;19.10;52.10;;;;;;4877002;29;20240;-80
2021/09/20 18:43:30;;;;;;;5.32;2.35;;;19.10;52.10;;;;;;4893583;29;20192;-80
2021/09/20 18:45:59;;;;;;;3.75;2.63;;;19.20;51.80;;;;;;4893653;29;20218;-80
2021/09/20 18:48:25;;;;;;;4.18;2.80;;;19.10;52.80;;;;;;4876989;29;20263;-79
2021/09/20 18:50:55;;;;;;;4.07;3.00;;;19.20;52.00;;;;;;4892061;29;20284;-81
2021/09/20 18:53:23;;;;;;;4.55;3.20;;;19.20;51.80;;;;;;4892045;29;20223;-79
2021/09/20 18:55:49;;;;;;;5.93;3.08;;;19.20;52.00;;;;;;4892948;29;20212;-80
2021/09/20 18:58:17;;;;;;;3.88;3.00;;;19.20;51.90;;;;;;4892709;29;20203;-79
2021/09/20 19:00:43;;;;;;;5.05;3.00;;;19.20;51.90;;;;;;4891636;29;20211;-80
2021/09/20 19:03:09;;;;;;;4.47;2.70;;;19.20;51.90;;;;;;4892942;29;20215;-79
2021/09/20 19:05:35;;;;;;;4.35;3.00;;;19.20;52.00;;;;;;4893035;29;20211;-80
2021/09/20 19:08:05;;;;;;;3.90;2.60;;;19.20;51.80;;;;;;4893045;29;20204;-80
2021/09/20 19:10:33;;;;;;;5.43;3.13;;;19.20;51.80;;;;;;4891577;29;20263;-80
2021/09/20 19:13:02;;;;;;;4.35;2.80;;;19.20;51.90;;;;;;4877052;29;20226;-80
2021/09/20 19:15:28;;;;;;;3.00;2.55;;;19.10;51.80;;;;;;4875704;29;20204;-80
2021/09/20 19:17:56;;;;;;;4.85;3.38;;;19.10;52.20;;;;;;4876775;29;20206;-80
2021/09/20 19:20:22;;;;;;;3.47;2.65;;;19.10;52.20;;;;;;4891814;29;20224;-79
2021/09/20 19:22:48;;;;;;;4.93;3.00;;;19.10;51.90;;;;;;4892054;29;20200;-80
2021/09/20 19:25:14;;;;;;;3.40;2.75;;;19.10;52.20;;;;;;4876830;29;20226;-80
2021/09/20 19:27:40;;;;;;;3.30;2.80;;;19.10;52.10;;;;;;4891207;29;20208;-80
2021/09/20 19:30:11;;;;;;;4.85;3.20;;;19.10;52.00;;;;;;4891907;29;20208;-80
2021/09/20 19:32:38;;;;;;;5.75;3.08;;;19.10;52.50;;;;;;4876285;29;20214;-80
2021/09/20 19:35:09;;;;;;;5.45;2.85;;;19.10;52.00;;;;;;4877088;29;20201;-79
2021/09/20 19:37:37;;;;;;;3.83;2.80;;;19.10;52.30;;;;;;4892052;29;20220;-80
2021/09/20 19:40:05;;;;;;;4.28;2.90;;;19.10;52.40;;;;;;4891932;29;20263;-80
2021/09/20 19:42:33;;;;;;;8.93;3.20;;;19.10;52.10;;;;;;4877004;29;20191;-80
2021/09/20 19:45:01;;;;;;;4.50;3.05;;;19.10;52.20;;;;;;4875969;29;20184;-80
2021/09/20 19:47:28;;;;;;;7.07;2.85;;;19.10;52.00;;;;;;4891854;29;20168;-80
2021/09/20 19:49:54;;;;;;;4.93;2.67;;;19.10;52.60;;;;;;4893156;29;20179;-79
2021/09/20 19:52:19;;;;;;;4.53;2.80;;;19.10;52.20;;;;;;4892629;29;20183;-79
2021/09/20 19:54:47;;;;;;;5.07;3.05;;;19.10;52.10;;;;;;4892681;29;20175;-80
2021/09/20 19:57:13;;;;;;;6.65;3.05;;;19.10;52.10;;;;;;4892621;29;20164;-79
2021/09/20 19:59:38;;;;;;;4.32;2.97;;;19.10;52.10;;;;;;4876711;29;20184;-80
2021/09/20 20:02:04;;;;;;;7.75;2.80;;;19.10;51.80;;;;;;4891848;29;20166;-79
2021/09/20 20:04:32;;;;;;;5.65;3.15;;;19.10;52.60;;;;;;4892897;29;20161;-79
2021/09/20 20:06:57;;;;;;;6.82;3.33;;;19.00;53.00;;;;;;4891353;29;20161;-80
2021/09/20 20:09:25;;;;;;;4.95;2.90;;;19.00;53.20;;;;;;4892861;29;20167;-80